sensor_id;sensor_type;location;lat;lon;timestamp;P1;durP1;ratioP1;P2;durP2;ratioP2
18280;SDS011;9266;51.132;17.062;2024-03-23T00:52:42;32.17;;;20.37;;
18280;SDS011;9266;51.132;17.062;2024-03-23T00:55:10;29.93;;;19.80;;
18280;SDS011;9266;51.132;17.062;2024-03-23T00:57:37;29.77;;;18.40;;
18280;SDS011;9266;51.132;17.062;2024-03-23T01:00:04;33.20;;;19.37;;
18280;SDS011;9266;51.132;17.062;2024-03-23T01:02:31;32.77;;;20.27;;
18280;SDS011;9266;51.132;17.062;2024-03-23T01:04:58;35.80;;;21.40;;
18280;SDS011;9266;51.132;17.062;2024-03-23T01:07:24;34.23;;;20.33;;
18280;SDS011;9266;51.132;17.062;2024-03-23T01:09:53;33.43;;;20.40;;
18280;SDS011;9266;51.132;17.062;2024-03-23T01:12:19;32.53;;;20.60;;
18280;SDS011;9266;51.132;17.062;2024-03-23T01:14:46;31.67;;;20.07;;
18280;SDS011;9266;51.132;17.062;2024-03-23T01:17:13;32.77;;;19.30;;
18280;SDS011;9266;51.132;17.062;2024-03-23T01:19:40;32.57;;;20.30;;
18280;SDS011;9266;51.132;17.062;2024-03-23T01:22:06;32.63;;;19.13;;
18280;SDS011;9266;51.132;17.062;2024-03-23T01:24:35;28.33;;;18.63;;
18280;SDS011;9266;51.132;17.062;2024-03-23T01:27:02;26.83;;;17.47;;
18280;SDS011;9266;51.132;17.062;2024-03-23T01:29:29;30.33;;;18.53;;
18280;SDS011;9266;51.132;17.062;2024-03-23T01:31:56;24.63;;;16.93;;
18280;SDS011;9266;51.132;17.062;2024-03-23T01:34:23;26.73;;;18.03;;
18280;SDS011;9266;51.132;17.062;2024-03-23T01:36:50;28.43;;;17.60;;
18280;SDS011;9266;51.132;17.062;2024-03-23T01:39:17;32.00;;;19.30;;
18280;SDS011;9266;51.132;17.062;2024-03-23T01:41:43;28.87;;;17.93;;
18280;SDS011;9266;51.132;17.062;2024-03-23T01:44:11;27.77;;;18.53;;
18280;SDS011;9266;51.132;17.062;2024-03-23T01:46:38;29.87;;;18.63;;
18280;SDS011;9266;51.132;17.062;2024-03-23T01:49:06;26.77;;;17.87;;
18280;SDS011;9266;51.132;17.062;2024-03-23T01:51:33;26.73;;;17.40;;
18280;SDS011;9266;51.132;17.062;2024-03-23T01:54:00;26.07;;;17.63;;
18280;SDS011;9266;51.132;17.062;2024-03-23T01:56:28;27.57;;;18.40;;
18280;SDS011;9266;51.132;17.062;2024-03-23T01:58:55;27.37;;;17.77;;
18280;SDS011;9266;51.132;17.062;2024-03-23T02:01:23;27.90;;;17.80;;
18280;SDS011;9266;51.132;17.062;2024-03-23T02:03:50;25.97;;;16.60;;
18280;SDS011;9266;51.132;17.062;2024-03-23T02:06:16;30.17;;;17.47;;
18280;SDS011;9266;51.132;17.062;2024-03-23T02:08:43;26.23;;;16.10;;
18280;SDS011;9266;51.132;17.062;2024-03-23T02:11:10;28.70;;;17.20;;
18280;SDS011;9266;51.132;17.062;2024-03-23T02:13:37;26.20;;;16.57;;
18280;SDS011;9266;51.132;17.062;2024-03-23T02:16:04;24.37;;;15.50;;
18280;SDS011;9266;51.132;17.062;2024-03-23T02:18:33;25.23;;;16.00;;
18280;SDS011;9266;51.132;17.062;2024-03-23T02:20:59;24.67;;;15.33;;
18280;SDS011;9266;51.132;17.062;2024-03-23T02:23:27;23.27;;;14.93;;
18280;SDS011;9266;51.132;17.062;2024-03-23T02:25:53;26.43;;;15.10;;
18280;SDS011;9266;51.132;17.062;2024-03-23T02:28:20;23.43;;;15.03;;
18280;SDS011;9266;51.132;17.062;2024-03-23T02:30:47;20.47;;;15.00;;
18280;SDS011;9266;51.132;17.062;2024-03-23T02:33:14;21.73;;;14.27;;
18280;SDS011;9266;51.132;17.062;2024-03-23T02:35:40;23.63;;;15.93;;
18280;SDS011;9266;51.132;17.062;2024-03-23T02:38:08;22.90;;;15.20;;
18280;SDS011;9266;51.132;17.062;2024-03-23T02:40:35;24.13;;;14.83;;
18280;SDS011;9266;51.132;17.062;2024-03-23T02:43:02;22.43;;;14.93;;
18280;SDS011;9266;51.132;17.062;2024-03-23T02:45:29;24.83;;;15.47;;
18280;SDS011;9266;51.132;17.062;2024-03-23T02:47:56;23.07;;;16.50;;
18280;SDS011;9266;51.132;17.062;2024-03-23T02:50:22;23.30;;;15.57;;
18280;SDS011;9266;51.132;17.062;2024-03-23T02:52:49;24.83;;;15.47;;
18280;SDS011;9266;51.132;17.062;2024-03-23T02:55:16;22.53;;;14.87;;
18280;SDS011;9266;51.132;17.062;2024-03-23T02:57:44;21.93;;;15.40;;
18280;SDS011;9266;51.132;17.062;2024-03-23T03:00:10;22.13;;;14.70;;
18280;SDS011;9266;51.132;17.062;2024-03-23T03:02:38;22.70;;;15.37;;
18280;SDS011;9266;51.132;17.062;2024-03-23T03:05:04;23.37;;;15.20;;
18280;SDS011;9266;51.132;17.062;2024-03-23T03:07:31;22.13;;;14.87;;
18280;SDS011;9266;51.132;17.062;2024-03-23T03:09:58;22.60;;;14.63;;
18280;SDS011;9266;51.132;17.062;2024-03-23T03:12:24;22.77;;;15.03;;
18280;SDS011;9266;51.132;17.062;2024-03-23T03:14:52;21.53;;;14.13;;
18280;SDS011;9266;51.132;17.062;2024-03-23T03:17:19;24.53;;;15.80;;
18280;SDS011;9266;51.132;17.062;2024-03-23T03:19:45;23.80;;;15.27;;
18280;SDS011;9266;51.132;17.062;2024-03-23T03:22:13;28.50;;;15.60;;
18280;SDS011;9266;51.132;17.062;2024-03-23T03:24:39;22.30;;;15.07;;
18280;SDS011;9266;51.132;17.062;2024-03-23T03:27:06;21.77;;;15.03;;
18280;SDS011;9266;51.132;17.062;2024-03-23T03:29:33;20.97;;;14.87;;
18280;SDS011;9266;51.132;17.062;2024-03-23T03:32:02;23.33;;;15.63;;
18280;SDS011;9266;51.132;17.062;2024-03-23T03:34:29;21.40;;;15.37;;
18280;SDS011;9266;51.132;17.062;2024-03-23T03:36:56;21.20;;;15.10;;
18280;SDS011;9266;51.132;17.062;2024-03-23T03:39:24;22.93;;;14.83;;
18280;SDS011;9266;51.132;17.062;2024-03-23T03:41:51;23.00;;;15.43;;
18280;SDS011;9266;51.132;17.062;2024-03-23T03:44:18;23.17;;;16.00;;
18280;SDS011;9266;51.132;17.062;2024-03-23T03:46:44;23.77;;;16.40;;
18280;SDS011;9266;51.132;17.062;2024-03-23T03:49:13;20.07;;;15.37;;
18280;SDS011;9266;51.132;17.062;2024-03-23T03:51:39;18.87;;;14.50;;
18280;SDS011;9266;51.132;17.062;2024-03-23T03:54:06;25.80;;;15.57;;
18280;SDS011;9266;51.132;17.062;2024-03-23T03:56:32;23.63;;;16.00;;
18280;SDS011;9266;51.132;17.062;2024-03-23T03:58:59;24.20;;;15.57;;
18280;SDS011;9266;51.132;17.062;2024-03-23T04:01:25;22.80;;;16.23;;
18280;SDS011;9266;51.132;17.062;2024-03-23T04:03:53;22.60;;;15.60;;
18280;SDS011;9266;51.132;17.062;2024-03-23T04:06:20;24.17;;;16.07;;
18280;SDS011;9266;51.132;17.062;2024-03-23T04:08:48;23.17;;;16.67;;
18280;SDS011;9266;51.132;17.062;2024-03-23T04:11:14;21.53;;;15.33;;
18280;SDS011;9266;51.132;17.062;2024-03-23T04:13:41;23.57;;;16.73;;
18280;SDS011;9266;51.132;17.062;2024-03-23T04:16:07;27.53;;;16.30;;
18280;SDS011;9266;51.132;17.062;2024-03-23T04:18:35;23.43;;;16.37;;
18280;SDS011;9266;51.132;17.062;2024-03-23T04:21:01;24.30;;;16.97;;
18280;SDS011;9266;51.132;17.062;2024-03-23T04:23:30;23.03;;;16.13;;
18280;SDS011;9266;51.132;17.062;2024-03-23T04:25:57;24.30;;;17.93;;
18280;SDS011;9266;51.132;17.062;2024-03-23T04:28:30;24.70;;;16.53;;
18280;SDS011;9266;51.132;17.062;2024-03-23T04:30:56;23.70;;;16.93;;
18280;SDS011;9266;51.132;17.062;2024-03-23T04:33:23;22.90;;;15.53;;
18280;SDS011;9266;51.132;17.062;2024-03-23T04:35:49;21.73;;;16.37;;
18280;SDS011;9266;51.132;17.062;2024-03-23T04:38:16;22.13;;;15.90;;
18280;SDS011;9266;51.132;17.062;2024-03-23T04:40:45;25.27;;;15.97;;
18280;SDS011;9266;51.132;17.062;2024-03-23T04:43:20;22.90;;;15.70;;
18280;SDS011;9266;51.132;17.062;2024-03-23T04:45:48;24.63;;;16.50;;
18280;SDS011;9266;51.132;17.062;2024-03-23T04:48:14;22.40;;;15.83;;
18280;SDS011;9266;51.132;17.062;2024-03-23T04:50:41;21.63;;;16.20;;
18280;SDS011;9266;51.132;17.062;2024-03-23T04:53:08;20.43;;;14.60;;
18280;SDS011;9266;51.132;17.062;2024-03-23T04:55:35;24.10;;;16.60;;
18280;SDS011;9266;51.132;17.062;2024-03-23T04:58:04;24.13;;;16.27;;
18280;SDS011;9266;51.132;17.062;2024-03-23T05:00:30;23.70;;;16.43;;
18280;SDS011;9266;51.132;17.062;2024-03-23T05:02:57;24.30;;;16.50;;
18280;SDS011;9266;51.132;17.062;2024-03-23T05:05:23;23.10;;;16.53;;
18280;SDS011;9266;51.132;17.062;2024-03-23T05:07:50;25.47;;;16.07;;
18280;SDS011;9266;51.132;17.062;2024-03-23T05:10:16;22.70;;;15.60;;
18280;SDS011;9266;51.132;17.062;2024-03-23T05:12:44;23.47;;;16.47;;
18280;SDS011;9266;51.132;17.062;2024-03-23T05:15:12;24.47;;;15.73;;
18280;SDS011;9266;51.132;17.062;2024-03-23T05:17:41;24.67;;;16.43;;
18280;SDS011;9266;51.132;17.062;2024-03-23T05:20:07;21.53;;;16.10;;
18280;SDS011;9266;51.132;17.062;2024-03-23T05:22:35;22.13;;;15.70;;
18280;SDS011;9266;51.132;17.062;2024-03-23T05:25:01;24.97;;;17.07;;
18280;SDS011;9266;51.132;17.062;2024-03-23T05:27:29;26.50;;;16.57;;
18280;SDS011;9266;51.132;17.062;2024-03-23T05:29:56;23.17;;;16.13;;
18280;SDS011;9266;51.132;17.062;2024-03-23T05:32:24;24.40;;;16.43;;
18280;SDS011;9266;51.132;17.062;2024-03-23T05:34:51;24.93;;;17.90;;
18280;SDS011;9266;51.132;17.062;2024-03-23T05:37:20;24.40;;;17.00;;
18280;SDS011;9266;51.132;17.062;2024-03-23T05:39:47;23.27;;;16.13;;
18280;SDS011;9266;51.132;17.062;2024-03-23T05:42:15;23.23;;;16.13;;
18280;SDS011;9266;51.132;17.062;2024-03-23T05:44:42;22.57;;;15.63;;
18280;SDS011;9266;51.132;17.062;2024-03-23T05:47:10;22.37;;;17.73;;
18280;SDS011;9266;51.132;17.062;2024-03-23T05:49:39;23.83;;;17.07;;
18280;SDS011;9266;51.132;17.062;2024-03-23T05:52:06;23.23;;;15.57;;
18280;SDS011;9266;51.132;17.062;2024-03-23T05:54:33;24.43;;;16.83;;
18280;SDS011;9266;51.132;17.062;2024-03-23T05:57:00;23.23;;;15.97;;
18280;SDS011;9266;51.132;17.062;2024-03-23T05:59:26;23.63;;;16.67;;
18280;SDS011;9266;51.132;17.062;2024-03-23T06:01:54;27.20;;;16.43;;
18280;SDS011;9266;51.132;17.062;2024-03-23T06:04:20;22.47;;;15.80;;
18280;SDS011;9266;51.132;17.062;2024-03-23T06:06:49;22.07;;;15.40;;
18280;SDS011;9266;51.132;17.062;2024-03-23T06:09:17;24.13;;;16.00;;
18280;SDS011;9266;51.132;17.062;2024-03-23T06:11:45;21.13;;;15.20;;
18280;SDS011;9266;51.132;17.062;2024-03-23T06:14:11;20.17;;;15.13;;
18280;SDS011;9266;51.132;17.062;2024-03-23T06:16:38;22.70;;;15.97;;
18280;SDS011;9266;51.132;17.062;2024-03-23T06:19:04;22.13;;;15.23;;
18280;SDS011;9266;51.132;17.062;2024-03-23T06:21:31;20.20;;;14.67;;
18280;SDS011;9266;51.132;17.062;2024-03-23T06:23:59;26.53;;;15.23;;
18280;SDS011;9266;51.132;17.062;2024-03-23T06:26:26;18.37;;;14.17;;
18280;SDS011;9266;51.132;17.062;2024-03-23T06:28:52;56.80;;;31.70;;
18280;SDS011;9266;51.132;17.062;2024-03-23T06:31:19;79.67;;;38.27;;
18280;SDS011;9266;51.132;17.062;2024-03-23T06:33:45;69.37;;;36.00;;
18280;SDS011;9266;51.132;17.062;2024-03-23T06:36:12;55.93;;;30.87;;
18280;SDS011;9266;51.132;17.062;2024-03-23T06:38:38;37.70;;;22.67;;
18280;SDS011;9266;51.132;17.062;2024-03-23T06:41:07;34.47;;;22.07;;
18280;SDS011;9266;51.132;17.062;2024-03-23T06:43:33;20.70;;;15.17;;
18280;SDS011;9266;51.132;17.062;2024-03-23T06:46:01;17.60;;;14.23;;
18280;SDS011;9266;51.132;17.062;2024-03-23T06:48:28;21.60;;;15.27;;
18280;SDS011;9266;51.132;17.062;2024-03-23T06:50:56;19.77;;;14.67;;
18280;SDS011;9266;51.132;17.062;2024-03-23T06:53:22;19.70;;;14.87;;
18280;SDS011;9266;51.132;17.062;2024-03-23T06:55:50;23.00;;;16.30;;
18280;SDS011;9266;51.132;17.062;2024-03-23T06:58:18;19.67;;;14.57;;
18280;SDS011;9266;51.132;17.062;2024-03-23T07:00:45;23.20;;;15.30;;
18280;SDS011;9266;51.132;17.062;2024-03-23T07:03:11;21.40;;;15.83;;
18280;SDS011;9266;51.132;17.062;2024-03-23T07:05:39;22.93;;;14.47;;
18280;SDS011;9266;51.132;17.062;2024-03-23T07:08:05;19.40;;;12.90;;
18280;SDS011;9266;51.132;17.062;2024-03-23T07:10:32;20.13;;;12.97;;
18280;SDS011;9266;51.132;17.062;2024-03-23T07:12:58;17.90;;;14.30;;
18280;SDS011;9266;51.132;17.062;2024-03-23T07:15:27;16.93;;;12.20;;
18280;SDS011;9266;51.132;17.062;2024-03-23T07:17:53;18.20;;;12.40;;
18280;SDS011;9266;51.132;17.062;2024-03-23T07:20:20;14.97;;;11.90;;
18280;SDS011;9266;51.132;17.062;2024-03-23T07:22:46;17.97;;;12.43;;
18280;SDS011;9266;51.132;17.062;2024-03-23T07:25:14;14.37;;;11.93;;
18280;SDS011;9266;51.132;17.062;2024-03-23T07:27:40;22.93;;;12.87;;
18280;SDS011;9266;51.132;17.062;2024-03-23T07:30:07;16.63;;;12.33;;
18280;SDS011;9266;51.132;17.062;2024-03-23T07:32:35;18.10;;;12.13;;
18280;SDS011;9266;51.132;17.062;2024-03-23T07:35:02;15.13;;;11.63;;
18280;SDS011;9266;51.132;17.062;2024-03-23T07:37:29;18.17;;;12.70;;
18280;SDS011;9266;51.132;17.062;2024-03-23T07:39:56;19.63;;;13.97;;
18280;SDS011;9266;51.132;17.062;2024-03-23T07:42:23;13.10;;;11.40;;
18280;SDS011;9266;51.132;17.062;2024-03-23T07:44:51;16.67;;;13.23;;
18280;SDS011;9266;51.132;17.062;2024-03-23T07:47:20;16.17;;;11.33;;
18280;SDS011;9266;51.132;17.062;2024-03-23T07:49:48;16.77;;;11.70;;
18280;SDS011;9266;51.132;17.062;2024-03-23T07:52:14;15.73;;;11.57;;
18280;SDS011;9266;51.132;17.062;2024-03-23T07:54:41;16.90;;;11.40;;
18280;SDS011;9266;51.132;17.062;2024-03-23T07:57:07;16.33;;;12.07;;
18280;SDS011;9266;51.132;17.062;2024-03-23T07:59:34;15.43;;;11.47;;
18280;SDS011;9266;51.132;17.062;2024-03-23T08:02:01;14.67;;;11.50;;
18280;SDS011;9266;51.132;17.062;2024-03-23T08:04:29;17.67;;;11.67;;
18280;SDS011;9266;51.132;17.062;2024-03-23T08:06:57;15.60;;;11.77;;
18280;SDS011;9266;51.132;17.062;2024-03-23T08:09:23;18.80;;;12.70;;
18280;SDS011;9266;51.132;17.062;2024-03-23T08:11:50;18.60;;;11.73;;
18280;SDS011;9266;51.132;17.062;2024-03-23T08:14:17;16.33;;;12.50;;
18280;SDS011;9266;51.132;17.062;2024-03-23T08:16:43;16.93;;;11.70;;
18280;SDS011;9266;51.132;17.062;2024-03-23T08:19:13;16.67;;;12.37;;
18280;SDS011;9266;51.132;17.062;2024-03-23T08:21:39;19.43;;;13.17;;
18280;SDS011;9266;51.132;17.062;2024-03-23T08:24:08;17.83;;;12.87;;
18280;SDS011;9266;51.132;17.062;2024-03-23T08:26:34;15.80;;;12.40;;
18280;SDS011;9266;51.132;17.062;2024-03-23T08:29:03;15.43;;;11.57;;
18280;SDS011;9266;51.132;17.062;2024-03-23T08:31:29;12.97;;;10.90;;
18280;SDS011;9266;51.132;17.062;2024-03-23T08:33:57;16.43;;;10.50;;
18280;SDS011;9266;51.132;17.062;2024-03-23T08:36:23;16.00;;;10.73;;
18280;SDS011;9266;51.132;17.062;2024-03-23T08:38:50;13.77;;;10.80;;
18280;SDS011;9266;51.132;17.062;2024-03-23T08:41:20;16.60;;;11.00;;
18280;SDS011;9266;51.132;17.062;2024-03-23T08:43:47;14.97;;;11.13;;
18280;SDS011;9266;51.132;17.062;2024-03-23T08:46:13;14.80;;;10.60;;
18280;SDS011;9266;51.132;17.062;2024-03-23T08:48:42;13.00;;;10.23;;
18280;SDS011;9266;51.132;17.062;2024-03-23T08:51:10;13.90;;;10.90;;
18280;SDS011;9266;51.132;17.062;2024-03-23T08:53:38;12.30;;;9.90;;
18280;SDS011;9266;51.132;17.062;2024-03-23T08:56:05;16.07;;;10.37;;
18280;SDS011;9266;51.132;17.062;2024-03-23T08:58:34;17.40;;;11.53;;
18280;SDS011;9266;51.132;17.062;2024-03-23T09:01:05;16.37;;;10.87;;
18280;SDS011;9266;51.132;17.062;2024-03-23T09:03:33;15.33;;;10.63;;
18280;SDS011;9266;51.132;17.062;2024-03-23T09:06:00;14.90;;;11.00;;
18280;SDS011;9266;51.132;17.062;2024-03-23T09:08:27;13.20;;;10.60;;
18280;SDS011;9266;51.132;17.062;2024-03-23T09:10:53;15.07;;;11.10;;
18280;SDS011;9266;51.132;17.062;2024-03-23T09:13:20;14.37;;;11.27;;
18280;SDS011;9266;51.132;17.062;2024-03-23T09:15:48;17.57;;;11.87;;
18280;SDS011;9266;51.132;17.062;2024-03-23T09:18:16;16.67;;;11.23;;
18280;SDS011;9266;51.132;17.062;2024-03-23T09:20:42;15.33;;;11.80;;
18280;SDS011;9266;51.132;17.062;2024-03-23T09:23:09;16.80;;;10.37;;
18280;SDS011;9266;51.132;17.062;2024-03-23T09:25:36;13.90;;;10.80;;
18280;SDS011;9266;51.132;17.062;2024-03-23T09:28:04;13.60;;;10.40;;
18280;SDS011;9266;51.132;17.062;2024-03-23T09:30:32;14.33;;;10.13;;
18280;SDS011;9266;51.132;17.062;2024-03-23T09:33:01;15.17;;;10.90;;
18280;SDS011;9266;51.132;17.062;2024-03-23T09:35:28;17.33;;;11.40;;
18280;SDS011;9266;51.132;17.062;2024-03-23T09:37:55;14.10;;;10.83;;
18280;SDS011;9266;51.132;17.062;2024-03-23T09:40:22;14.83;;;11.13;;
18280;SDS011;9266;51.132;17.062;2024-03-23T09:42:49;14.37;;;10.20;;
18280;SDS011;9266;51.132;17.062;2024-03-23T09:45:17;13.47;;;10.33;;
18280;SDS011;9266;51.132;17.062;2024-03-23T09:47:47;16.37;;;11.30;;
18280;SDS011;9266;51.132;17.062;2024-03-23T09:50:15;12.67;;;10.20;;
18280;SDS011;9266;51.132;17.062;2024-03-23T09:52:42;15.10;;;11.13;;
18280;SDS011;9266;51.132;17.062;2024-03-23T09:55:08;12.83;;;10.57;;
18280;SDS011;9266;51.132;17.062;2024-03-23T09:57:35;13.17;;;11.23;;
18280;SDS011;9266;51.132;17.062;2024-03-23T10:00:02;18.37;;;11.17;;
18280;SDS011;9266;51.132;17.062;2024-03-23T10:02:29;15.67;;;10.87;;
18280;SDS011;9266;51.132;17.062;2024-03-23T10:04:55;15.33;;;10.40;;
18280;SDS011;9266;51.132;17.062;2024-03-23T10:07:25;14.40;;;11.27;;
18280;SDS011;9266;51.132;17.062;2024-03-23T10:09:53;11.63;;;10.43;;
18280;SDS011;9266;51.132;17.062;2024-03-23T10:12:21;15.20;;;10.70;;
18280;SDS011;9266;51.132;17.062;2024-03-23T10:14:48;16.20;;;11.83;;
18280;SDS011;9266;51.132;17.062;2024-03-23T10:17:16;14.97;;;11.20;;
18280;SDS011;9266;51.132;17.062;2024-03-23T10:19:43;13.33;;;9.93;;
18280;SDS011;9266;51.132;17.062;2024-03-23T10:22:13;14.33;;;10.53;;
18280;SDS011;9266;51.132;17.062;2024-03-23T10:24:41;17.03;;;10.30;;
18280;SDS011;9266;51.132;17.062;2024-03-23T10:27:08;12.10;;;9.80;;
18280;SDS011;9266;51.132;17.062;2024-03-23T10:29:35;14.57;;;10.67;;
18280;SDS011;9266;51.132;17.062;2024-03-23T10:32:08;14.90;;;10.13;;
18280;SDS011;9266;51.132;17.062;2024-03-23T10:34:35;16.13;;;10.57;;
18280;SDS011;9266;51.132;17.062;2024-03-23T10:37:03;14.90;;;10.67;;
18280;SDS011;9266;51.132;17.062;2024-03-23T10:39:30;10.87;;;9.30;;
18280;SDS011;9266;51.132;17.062;2024-03-23T10:42:03;11.97;;;10.13;;
18280;SDS011;9266;51.132;17.062;2024-03-23T10:44:30;9.87;;;8.63;;
18280;SDS011;9266;51.132;17.062;2024-03-23T10:46:57;10.40;;;8.70;;
18280;SDS011;9266;51.132;17.062;2024-03-23T10:49:25;15.37;;;8.77;;
18280;SDS011;9266;51.132;17.062;2024-03-23T10:51:54;10.27;;;8.73;;
18280;SDS011;9266;51.132;17.062;2024-03-23T10:54:21;13.07;;;9.50;;
18280;SDS011;9266;51.132;17.062;2024-03-23T10:56:48;11.43;;;9.70;;
18280;SDS011;9266;51.132;17.062;2024-03-23T10:59:20;11.63;;;10.07;;
18280;SDS011;9266;51.132;17.062;2024-03-23T11:01:54;12.33;;;9.50;;
18280;SDS011;9266;51.132;17.062;2024-03-23T11:04:29;14.97;;;9.50;;
18280;SDS011;9266;51.132;17.062;2024-03-23T11:06:57;21.00;;;9.77;;
18280;SDS011;9266;51.132;17.062;2024-03-23T11:09:39;14.37;;;10.37;;
18280;SDS011;9266;51.132;17.062;2024-03-23T11:12:17;13.77;;;10.30;;
18280;SDS011;9266;51.132;17.062;2024-03-23T11:14:52;11.83;;;9.67;;
18280;SDS011;9266;51.132;17.062;2024-03-23T11:17:21;15.40;;;10.80;;
18280;SDS011;9266;51.132;17.062;2024-03-23T11:19:52;14.50;;;10.70;;
18280;SDS011;9266;51.132;17.062;2024-03-23T11:25:17;11.00;;;8.50;;
18280;SDS011;9266;51.132;17.062;2024-03-23T11:27:45;21.53;;;9.53;;
18280;SDS011;9266;51.132;17.062;2024-03-23T11:30:15;10.90;;;8.47;;
18280;SDS011;9266;51.132;17.062;2024-03-23T11:32:42;14.37;;;8.63;;
18280;SDS011;9266;51.132;17.062;2024-03-23T11:35:10;9.87;;;8.20;;
18280;SDS011;9266;51.132;17.062;2024-03-23T11:37:36;9.77;;;8.27;;
18280;SDS011;9266;51.132;17.062;2024-03-23T11:40:19;12.03;;;8.70;;
18280;SDS011;9266;51.132;17.062;2024-03-23T11:42:46;10.60;;;7.13;;
18280;SDS011;9266;51.132;17.062;2024-03-23T11:45:14;9.00;;;6.80;;
18280;SDS011;9266;51.132;17.062;2024-03-23T11:47:43;9.93;;;6.97;;
18280;SDS011;9266;51.132;17.062;2024-03-23T11:50:10;10.23;;;7.47;;
18280;SDS011;9266;51.132;17.062;2024-03-23T11:52:45;10.07;;;7.43;;
18280;SDS011;9266;51.132;17.062;2024-03-23T11:55:12;9.50;;;7.80;;
18280;SDS011;9266;51.132;17.062;2024-03-23T11:57:38;8.20;;;6.00;;
18280;SDS011;9266;51.132;17.062;2024-03-23T12:02:49;9.50;;;6.30;;
18280;SDS011;9266;51.132;17.062;2024-03-23T12:05:16;10.80;;;6.30;;
18280;SDS011;9266;51.132;17.062;2024-03-23T12:07:42;9.50;;;6.67;;
18280;SDS011;9266;51.132;17.062;2024-03-23T12:10:10;7.37;;;5.77;;
18280;SDS011;9266;51.132;17.062;2024-03-23T12:12:36;7.70;;;6.40;;
18280;SDS011;9266;51.132;17.062;2024-03-23T12:15:04;8.13;;;6.53;;
18280;SDS011;9266;51.132;17.062;2024-03-23T12:17:32;12.03;;;6.40;;
18280;SDS011;9266;51.132;17.062;2024-03-23T12:20:00;6.73;;;5.23;;
18280;SDS011;9266;51.132;17.062;2024-03-23T12:22:26;7.07;;;5.33;;
18280;SDS011;9266;51.132;17.062;2024-03-23T12:24:54;6.07;;;4.83;;
18280;SDS011;9266;51.132;17.062;2024-03-23T12:27:21;6.50;;;4.93;;
18280;SDS011;9266;51.132;17.062;2024-03-23T12:29:49;6.13;;;5.37;;
18280;SDS011;9266;51.132;17.062;2024-03-23T12:32:15;6.93;;;5.00;;
18280;SDS011;9266;51.132;17.062;2024-03-23T12:34:45;5.67;;;4.90;;
18280;SDS011;9266;51.132;17.062;2024-03-23T12:37:12;7.67;;;5.07;;
18280;SDS011;9266;51.132;17.062;2024-03-23T12:39:39;6.50;;;5.30;;
18280;SDS011;9266;51.132;17.062;2024-03-23T12:42:06;6.83;;;5.07;;
18280;SDS011;9266;51.132;17.062;2024-03-23T12:44:33;7.00;;;5.13;;
18280;SDS011;9266;51.132;17.062;2024-03-23T12:46:59;6.13;;;4.83;;
18280;SDS011;9266;51.132;17.062;2024-03-23T12:49:26;7.37;;;5.90;;
18280;SDS011;9266;51.132;17.062;2024-03-23T12:51:55;6.00;;;4.93;;
18280;SDS011;9266;51.132;17.062;2024-03-23T12:54:24;6.27;;;4.97;;
18280;SDS011;9266;51.132;17.062;2024-03-23T12:56:51;6.40;;;4.90;;
18280;SDS011;9266;51.132;17.062;2024-03-23T12:59:18;5.13;;;4.63;;
18280;SDS011;9266;51.132;17.062;2024-03-23T13:01:44;9.40;;;4.63;;
18280;SDS011;9266;51.132;17.062;2024-03-23T13:04:12;7.33;;;4.73;;
18280;SDS011;9266;51.132;17.062;2024-03-23T13:06:38;6.47;;;5.40;;
18280;SDS011;9266;51.132;17.062;2024-03-23T13:09:07;9.80;;;6.13;;
18280;SDS011;9266;51.132;17.062;2024-03-23T13:11:32;6.37;;;5.40;;
18280;SDS011;9266;51.132;17.062;2024-03-23T13:14:00;5.90;;;4.30;;
18280;SDS011;9266;51.132;17.062;2024-03-23T13:16:26;5.33;;;3.93;;
18280;SDS011;9266;51.132;17.062;2024-03-23T13:18:53;4.50;;;4.03;;
18280;SDS011;9266;51.132;17.062;2024-03-23T13:21:19;10.43;;;5.47;;
18280;SDS011;9266;51.132;17.062;2024-03-23T13:23:47;7.97;;;5.50;;
18280;SDS011;9266;51.132;17.062;2024-03-23T13:26:18;9.73;;;5.57;;
18280;SDS011;9266;51.132;17.062;2024-03-23T13:28:45;9.27;;;6.67;;
18280;SDS011;9266;51.132;17.062;2024-03-23T13:31:11;8.37;;;6.50;;
18280;SDS011;9266;51.132;17.062;2024-03-23T13:33:38;12.80;;;9.40;;
18280;SDS011;9266;51.132;17.062;2024-03-23T13:36:07;10.97;;;6.73;;
18280;SDS011;9266;51.132;17.062;2024-03-23T13:38:34;9.10;;;6.37;;
18280;SDS011;9266;51.132;17.062;2024-03-23T13:41:01;6.97;;;5.77;;
18280;SDS011;9266;51.132;17.062;2024-03-23T13:43:31;9.43;;;6.13;;
18280;SDS011;9266;51.132;17.062;2024-03-23T13:45:57;7.70;;;6.23;;
18280;SDS011;9266;51.132;17.062;2024-03-23T13:48:25;7.93;;;5.23;;
18280;SDS011;9266;51.132;17.062;2024-03-23T13:51:01;6.47;;;5.13;;
18280;SDS011;9266;51.132;17.062;2024-03-23T13:53:29;6.33;;;5.27;;
18280;SDS011;9266;51.132;17.062;2024-03-23T13:55:55;7.27;;;4.10;;
18280;SDS011;9266;51.132;17.062;2024-03-23T13:58:22;5.70;;;3.77;;
18280;SDS011;9266;51.132;17.062;2024-03-23T14:00:52;4.43;;;3.60;;
18280;SDS011;9266;51.132;17.062;2024-03-23T14:03:19;4.03;;;3.63;;
18280;SDS011;9266;51.132;17.062;2024-03-23T14:05:45;5.13;;;3.63;;
18280;SDS011;9266;51.132;17.062;2024-03-23T14:08:13;6.47;;;4.10;;
18280;SDS011;9266;51.132;17.062;2024-03-23T14:10:40;5.60;;;3.67;;
18280;SDS011;9266;51.132;17.062;2024-03-23T14:13:07;4.10;;;2.93;;
18280;SDS011;9266;51.132;17.062;2024-03-23T14:15:33;4.23;;;3.07;;
18280;SDS011;9266;51.132;17.062;2024-03-23T14:18:03;4.67;;;2.67;;
18280;SDS011;9266;51.132;17.062;2024-03-23T14:20:29;2.73;;;2.47;;
18280;SDS011;9266;51.132;17.062;2024-03-23T14:22:56;5.23;;;3.23;;
18280;SDS011;9266;51.132;17.062;2024-03-23T14:25:23;9.03;;;3.70;;
18280;SDS011;9266;51.132;17.062;2024-03-23T14:27:53;5.90;;;3.60;;
18280;SDS011;9266;51.132;17.062;2024-03-23T14:30:20;4.73;;;3.23;;
18280;SDS011;9266;51.132;17.062;2024-03-23T14:32:47;3.83;;;2.57;;
18280;SDS011;9266;51.132;17.062;2024-03-23T14:35:15;3.27;;;2.10;;
18280;SDS011;9266;51.132;17.062;2024-03-23T14:37:42;2.20;;;1.90;;
18280;SDS011;9266;51.132;17.062;2024-03-23T14:40:08;2.07;;;1.77;;
18280;SDS011;9266;51.132;17.062;2024-03-23T14:42:37;4.33;;;1.97;;
18280;SDS011;9266;51.132;17.062;2024-03-23T14:45:05;1.60;;;1.47;;
18280;SDS011;9266;51.132;17.062;2024-03-23T14:47:32;1.90;;;1.80;;
18280;SDS011;9266;51.132;17.062;2024-03-23T14:49:59;3.17;;;1.97;;
18280;SDS011;9266;51.132;17.062;2024-03-23T14:52:27;2.73;;;2.00;;
18280;SDS011;9266;51.132;17.062;2024-03-23T14:54:54;1.60;;;1.50;;
18280;SDS011;9266;51.132;17.062;2024-03-23T14:57:21;2.17;;;1.60;;
18280;SDS011;9266;51.132;17.062;2024-03-23T14:59:49;2.63;;;1.57;;
18280;SDS011;9266;51.132;17.062;2024-03-23T15:02:15;2.27;;;1.77;;
18280;SDS011;9266;51.132;17.062;2024-03-23T15:04:42;1.77;;;1.60;;
18280;SDS011;9266;51.132;17.062;2024-03-23T15:07:08;1.70;;;1.60;;
18280;SDS011;9266;51.132;17.062;2024-03-23T15:09:37;1.60;;;1.50;;
18280;SDS011;9266;51.132;17.062;2024-03-23T15:12:03;1.70;;;1.60;;
18280;SDS011;9266;51.132;17.062;2024-03-23T15:14:31;2.10;;;1.80;;
18280;SDS011;9266;51.132;17.062;2024-03-23T15:16:57;5.93;;;2.27;;
18280;SDS011;9266;51.132;17.062;2024-03-23T15:19:24;4.33;;;2.20;;
18280;SDS011;9266;51.132;17.062;2024-03-23T15:21:50;2.00;;;1.80;;
18280;SDS011;9266;51.132;17.062;2024-03-23T15:24:18;1.80;;;1.70;;
18280;SDS011;9266;51.132;17.062;2024-03-23T15:26:45;2.07;;;1.90;;